Time;durP1;ratioP1;P1;durP2;ratioP2;P2;SDS_P1;SDS_P2;PMS_P1;PMS_P2;Temp;Humidity;BMP_temperature;BMP_pressure;BME280_temperature;BME280_humidity;BME280_pressure;Samples;Min_cycle;Max_cycle;Signal;HPM_P1;HPM_P2
2022/08/10 00:01:21;;;;;;;7.30;4.60;;;;;;;19.93;59.28;102569.13;4907816;28;119897;-80
2022/08/10 00:03:46;;;;;;;6.45;4.60;;;;;;;19.88;59.14;102553.06;4909374;28;121341;-81
2022/08/10 00:06:12;;;;;;;5.82;4.63;;;;;;;19.83;59.18;102550.91;4902394;28;120369;-81
2022/08/10 00:08:38;;;;;;;7.22;5.30;;;;;;;19.80;59.75;102552.63;4907595;28;120282;-81
2022/08/10 00:11:04;;;;;;;8.18;5.43;;;;;;;19.78;60.08;102551.53;4926866;28;119899;-80
2022/08/10 00:13:30;;;;;;;7.67;5.20;;;;;;;19.78;60.03;102549.53;4903430;28;120557;-80
2022/08/10 00:15:55;;;;;;;8.77;5.38;;;;;;;19.80;60.24;102551.84;4906154;28;119969;-80
2022/08/10 00:18:25;;;;;;;8.45;5.15;;;;;;;19.78;60.34;102548.75;4890133;28;121153;-81
2022/08/10 00:20:51;;;;;;;9.10;5.80;;;;;;;19.72;60.26;102540.28;4924738;28;120371;-81
2022/08/10 00:23:16;;;;;;;7.82;5.50;;;;;;;19.76;60.70;102545.69;4908866;28;121735;-80
2022/08/10 00:25:42;;;;;;;8.07;5.65;;;;;;;19.77;60.74;102545.22;4908321;28;121584;-78
2022/08/10 00:28:08;;;;;;;8.00;5.30;;;;;;;19.79;60.61;102547.50;4910878;28;119700;-79
2022/08/10 00:30:33;;;;;;;9.97;5.83;;;;;;;19.75;60.63;102541.34;4911428;28;119853;-79
2022/08/10 00:32:59;;;;;;;7.53;5.00;;;;;;;19.76;60.27;102543.66;4913555;28;123207;-80
2022/08/10 00:35:27;;;;;;;6.10;5.25;;;;;;;19.76;60.27;102549.22;4918166;28;120101;-80
2022/08/10 00:37:53;;;;;;;6.80;5.00;;;;;;;19.71;60.30;102537.97;4909822;28;121452;-80
2022/08/10 00:40:18;;;;;;;7.95;5.35;;;;;;;19.71;59.96;102537.97;4908068;28;119873;-80
2022/08/10 00:42:44;;;;;;;7.67;5.50;;;;;;;19.73;60.08;102543.84;4909163;28;119784;-80
2022/08/10 00:45:10;;;;;;;8.33;5.30;;;;;;;19.71;60.40;102544.31;4882537;28;123301;-80
2022/08/10 00:47:36;;;;;;;6.37;4.93;;;;;;;19.69;60.47;102537.66;4911917;28;119837;-80
2022/08/10 00:50:03;;;;;;;7.33;5.07;;;;;;;19.67;60.46;102540.16;4910687;28;121023;-79
2022/08/10 00:52:30;;;;;;;6.40;5.10;;;;;;;19.65;60.18;102537.06;4909570;28;120931;-80
2022/08/10 00:54:57;;;;;;;9.48;5.28;;;;;;;19.66;60.18;102544.94;4918482;28;120068;-80
2022/08/10 00:57:32;;;;;;;7.22;5.45;;;;;;;19.61;60.47;102535.19;4909478;28;120572;-80
2022/08/10 00:59:58;;;;;;;7.55;5.25;;;;;;;19.63;59.71;102538.28;4909988;28;120082;-80
2022/08/10 01:02:24;;;;;;;8.10;4.80;;;;;;;19.55;59.77;102523.16;4907039;28;119580;-80
2022/08/10 01:04:49;;;;;;;6.50;4.45;;;;;;;19.57;59.54;102531.81;4909664;28;123234;-80
2022/08/10 01:07:30;;;;;;;6.97;5.10;;;;;;;19.55;60.03;102539.84;4896697;28;120172;-80
2022/08/10 01:10:18;;;;;;;6.43;4.82;;;;;;;19.51;59.55;102536.44;4908298;28;120305;-80
2022/08/10 01:13:01;;;;;;;7.88;5.43;;;;;;;19.48;59.90;102542.94;4910783;28;120852;-80
2022/08/10 01:15:41;;;;;;;5.72;4.97;;;;;;;19.44;59.68;102534.00;4913795;28;120008;-80
2022/08/10 01:18:20;;;;;;;9.73;5.20;;;;;;;19.39;59.59;102534.59;4913674;28;121171;-80
2022/08/10 01:21:22;;;;;;;6.57;4.97;;;;;;;19.34;59.63;102538.03;4909922;28;119614;-80
2022/08/10 01:24:09;;;;;;;6.15;4.85;;;;;;;19.31;59.89;102541.75;4911318;28;119995;-80
2022/08/10 01:27:00;;;;;;;6.67;5.17;;;;;;;19.29;60.11;102541.44;4909758;28;120105;-80
2022/08/10 01:29:52;;;;;;;6.73;5.10;;;;;;;19.25;60.59;102543.63;4922241;28;121452;-80
2022/08/10 01:32:25;;;;;;;8.23;5.30;;;;;;;19.21;60.74;102537.44;4925324;28;121934;-80
2022/08/10 01:34:56;;;;;;;5.97;4.63;;;;;;;19.23;60.50;102538.50;4910692;28;119993;-80
2022/08/10 01:37:31;;;;;;;8.45;5.15;;;;;;;19.21;60.54;102545.78;4919697;28;119940;-80
2022/08/10 01:40:01;;;;;;;7.20;4.87;;;;;;;19.21;60.13;102537.44;4913109;28;120448;-79
2022/08/10 01:42:32;;;;;;;7.87;5.10;;;;;;;19.23;60.40;102546.88;4905394;28;119866;-80
2022/08/10 01:45:04;;;;;;;7.97;5.20;;;;;;;19.22;60.75;102550.88;4886081;28;119640;-79
2022/08/10 01:50:39;;;;;;;6.45;4.90;;;;;;;19.19;60.08;102556.63;4908202;28;120403;-79
2022/08/10 01:53:10;;;;;;;8.88;5.10;;;;;;;19.14;59.93;102557.97;4918955;28;120527;-80
2022/08/10 01:55:38;;;;;;;7.33;5.57;;;;;;;19.13;60.34;102555.66;4923087;28;121620;-80
2022/08/10 01:58:06;;;;;;;6.40;4.85;;;;;;;19.12;60.21;102551.34;4904422;28;119815;-80
2022/08/10 02:00:36;;;;;;;6.10;4.88;;;;;;;19.12;60.05;102557.69;4922901;28;121921;-80
2022/08/10 02:03:05;;;;;;;8.07;5.15;;;;;;;19.07;60.04;102561.09;4909177;28;121254;-79
2022/08/10 02:05:32;;;;;;;7.88;5.47;;;;;;;19.05;60.45;102560.78;4907056;28;120111;-80
2022/08/10 02:08:01;;;;;;;7.13;5.30;;;;;;;19.06;60.54;102564.34;4906360;28;120545;-79
2022/08/10 02:10:28;;;;;;;6.65;5.30;;;;;;;19.05;61.03;102569.13;4909278;28;119848;-80
2022/08/10 02:12:56;;;;;;;7.03;5.57;;;;;;;19.06;61.15;102567.88;4920916;28;120171;-79
2022/08/10 02:15:26;;;;;;;7.13;4.80;;;;;;;19.05;61.08;102566.34;4905053;28;122156;-80
2022/08/10 02:17:56;;;;;;;7.63;4.95;;;;;;;19.07;61.66;102572.22;4924247;28;120739;-80
2022/08/10 02:20:26;;;;;;;5.40;4.80;;;;;;;19.09;61.27;102568.97;4924536;28;120799;-80
2022/08/10 02:23:20;;;;;;;6.65;4.80;;;;;;;19.05;61.22;102571.91;4904264;28;121524;-79
2022/08/10 02:25:48;;;;;;;5.88;4.68;;;;;;;19.06;61.66;102569.91;4914498;28;120129;-79
2022/08/10 02:28:17;;;;;;;7.05;4.75;;;;;;;19.06;61.65;102573.44;4908286;28;119942;-80
2022/08/10 02:30:44;;;;;;;7.53;4.88;;;;;;;19.04;61.77;102564.03;4925030;28;119611;-80
2022/08/10 02:33:12;;;;;;;5.15;4.65;;;;;;;19.05;61.46;102569.13;4923235;28;120013;-80
2022/08/10 02:35:39;;;;;;;6.47;4.80;;;;;;;19.09;61.32;102578.09;4891984;28;122932;-79
2022/08/10 02:38:07;;;;;;;6.45;4.70;;;;;;;19.08;61.01;102572.97;4908623;28;121163;-80
2022/08/10 02:40:37;;;;;;;6.40;5.00;;;;;;;19.08;60.92;102565.41;4921731;28;119551;-79
2022/08/10 02:43:26;;;;;;;6.05;4.50;;;;;;;19.07;61.04;102566.66;4888735;28;123172;-80
2022/08/10 02:46:05;;;;;;;5.93;4.90;;;;;;;19.06;61.57;102564.34;4908846;28;119623;-79
2022/08/10 02:48:34;;;;;;;6.88;4.70;;;;;;;19.04;61.90;102559.25;4922787;28;119829;-80
2022/08/10 02:51:07;;;;;;;7.00;5.27;;;;;;;19.04;61.81;102573.16;4925397;28;119911;-79
2022/08/10 02:54:00;;;;;;;6.35;5.28;;;;;;;19.04;61.86;102566.81;4909175;28;120402;-79
2022/08/10 02:56:32;;;;;;;7.25;4.95;;;;;;;19.01;61.78;102563.72;4908331;28;123639;-80
2022/08/10 02:59:05;;;;;;;8.38;5.65;;;;;;;19.00;61.73;102570.53;4909831;28;119929;-79
2022/08/10 03:01:40;;;;;;;8.35;6.63;;;;;;;19.00;61.95;102570.53;4925488;28;120037;-80
2022/08/10 03:04:13;;;;;;;8.43;7.00;;;;;;;18.98;62.33;102563.88;4910248;28;119910;-79
2022/08/10 03:06:44;;;;;;;5.90;5.00;;;;;;;18.98;61.44;102559.09;4907822;28;120191;-80
2022/08/10 03:09:13;;;;;;;5.53;4.45;;;;;;;18.95;60.75;102571.16;4896473;28;119889;-80
2022/08/10 03:11:42;;;;;;;5.38;4.63;;;;;;;18.95;60.59;102576.72;4892352;28;119848;-80
2022/08/10 03:14:09;;;;;;;5.47;4.85;;;;;;;18.95;60.56;102564.81;4883021;28;122924;-80
2022/08/10 03:16:36;;;;;;;7.95;4.90;;;;;;;18.91;60.94;102555.81;4908112;28;123185;-80
2022/08/10 03:19:05;;;;;;;5.72;4.65;;;;;;;18.90;60.56;102568.97;4910100;28;119939;-80
2022/08/10 03:21:33;;;;;;;5.60;4.60;;;;;;;18.83;60.59;102563.72;4892071;28;120774;-79
2022/08/10 03:24:01;;;;;;;6.60;4.63;;;;;;;18.83;60.69;102563.72;4898961;28;120014;-80
2022/08/10 03:26:36;;;;;;;5.18;4.55;;;;;;;18.85;60.91;102566.81;4921511;28;120187;-80
2022/08/10 03:29:03;;;;;;;6.32;4.60;;;;;;;18.84;60.62;102570.03;4903715;28;120977;-80
2022/08/10 03:31:31;;;;;;;7.07;4.68;;;;;;;18.81;60.56;102566.19;4911102;28;123493;-80
2022/08/10 03:34:00;;;;;;;6.57;5.10;;;;;;;18.78;60.88;102560.78;4924314;28;120089;-80
2022/08/10 03:36:26;;;;;;;8.00;5.77;;;;;;;18.79;61.00;102557.53;4899238;28;120595;-79
2022/08/10 03:38:52;;;;;;;5.10;4.40;;;;;;;18.79;60.77;102565.88;4908716;28;119839;-79
2022/08/10 03:41:49;;;;;;;5.93;4.13;;;;;;;18.76;60.31;102566.81;4903769;28;119917;-79
2022/08/10 03:44:19;;;;;;;10.32;4.60;;;;;;;18.73;60.10;102567.75;4912297;28;121522;-80
2022/08/10 03:46:47;;;;;;;5.63;3.92;;;;;;;18.68;59.82;102568.31;4923199;28;120126;-79
2022/08/10 03:49:16;;;;;;;4.78;3.83;;;;;;;18.61;59.33;102574.16;4907996;28;120553;-79
2022/08/10 03:51:42;;;;;;;6.10;4.60;;;;;;;18.56;59.62;102567.22;4923259;28;120610;-79
2022/08/10 03:54:18;;;;;;;6.70;4.97;;;;;;;18.53;59.96;102573.69;4907880;28;120247;-80
2022/08/10 03:56:44;;;;;;;6.30;4.50;;;;;;;18.50;60.04;102576.63;4910157;28;123213;-79
2022/08/10 03:59:13;;;;;;;7.43;5.32;;;;;;;18.44;60.15;102570.09;4911225;28;120439;-79
2022/08/10 04:01:43;;;;;;;6.10;4.70;;;;;;;18.37;60.32;102566.38;4926267;28;120300;-79
2022/08/10 04:04:09;;;;;;;5.90;4.30;;;;;;;18.37;59.72;102577.50;4908833;28;121788;-79
2022/08/10 04:06:36;;;;;;;7.85;4.88;;;;;;;18.32;59.42;102580.88;4924637;28;120551;-80
2022/08/10 04:09:02;;;;;;;8.40;5.10;;;;;;;18.26;60.10;102582.72;4925317;28;120666;-81
2022/08/10 04:11:28;;;;;;;9.30;6.38;;;;;;;18.19;60.19;102577.44;4910493;28;120035;-79
2022/08/10 04:13:53;;;;;;;8.90;5.20;;;;;;;18.26;60.58;102579.97;4908929;28;120334;-79
2022/08/10 04:16:19;;;;;;;8.10;4.60;;;;;;;18.25;60.28;102574.84;4907506;28;122089;-80
2022/08/10 04:18:45;;;;;;;10.05;4.97;;;;;;;18.31;60.23;102582.13;4922471;28;120538;-79
2022/08/10 04:21:14;;;;;;;7.57;4.53;;;;;;;18.30;60.43;102580.59;4909416;28;120139;-80
2022/08/10 04:23:44;;;;;;;6.87;4.53;;;;;;;18.35;60.17;102582.75;4892145;28;121400;-80
2022/08/10 04:26:11;;;;;;;7.95;4.65;;;;;;;18.38;60.24;102573.50;4908835;28;119801;-80
2022/08/10 04:28:36;;;;;;;6.13;5.07;;;;;;;18.42;60.37;102574.13;4899367;28;120509;-79
2022/08/10 04:31:05;;;;;;;7.03;4.70;;;;;;;18.47;60.01;102572.00;4895901;28;121113;-80
2022/08/10 04:33:32;;;;;;;5.68;4.78;;;;;;;18.30;60.24;102543.69;4906300;28;120576;-79
2022/08/10 04:35:59;;;;;;;6.00;4.43;;;;;;;18.54;60.39;102575.25;4904469;28;121676;-80
2022/08/10 04:38:26;;;;;;;6.00;4.65;;;;;;;18.64;60.26;102573.25;4912880;28;120346;-80
2022/08/10 04:40:55;;;;;;;7.70;4.60;;;;;;;18.69;60.23;102573.44;4923887;28;120240;-80
2022/08/10 04:43:21;;;;;;;4.75;3.97;;;;;;;18.71;59.53;102567.44;4905354;28;120815;-80
2022/08/10 04:45:47;;;;;;;4.90;4.00;;;;;;;18.75;59.27;102565.25;4907621;28;120287;-79
2022/08/10 04:48:12;;;;;;;5.28;3.90;;;;;;;18.80;59.29;102563.88;4939299;28;120211;-79
2022/08/10 04:50:38;;;;;;;5.10;3.83;;;;;;;18.84;59.28;102565.25;4900711;28;120229;-79
2022/08/10 04:53:03;;;;;;;5.13;4.13;;;;;;;18.90;59.09;102570.97;4921547;28;120499;-79
2022/08/10 04:55:29;;;;;;;6.10;3.70;;;;;;;18.97;59.12;102576.25;4904576;28;121906;-79
2022/08/10 04:57:55;;;;;;;6.47;4.60;;;;;;;19.05;60.27;102577.47;4903496;28;122693;-79
2022/08/10 05:00:20;;;;;;;5.90;4.57;;;;;;;19.14;60.19;102579.47;4914576;28;120944;-80
2022/08/10 05:02:46;;;;;;;6.33;4.77;;;;;;;19.22;60.44;102566.81;4907425;28;120768;-80
2022/08/10 05:05:12;;;;;;;6.68;5.03;;;;;;;19.31;60.81;102580.69;4891340;28;120717;-80
2022/08/10 05:07:37;;;;;;;7.03;5.30;;;;;;;19.36;60.75;102566.16;4902197;28;121681;-80
2022/08/10 05:10:04;;;;;;;6.72;5.70;;;;;;;19.46;60.55;102576.03;4891447;28;122557;-80
2022/08/10 05:12:30;;;;;;;9.73;6.03;;;;;;;19.52;60.97;102557.47;4907829;28;121611;-80
2022/08/10 05:14:56;;;;;;;8.77;6.00;;;;;;;19.61;60.79;102560.25;4908038;28;122130;-80
2022/08/10 05:17:22;;;;;;;9.47;6.67;;;;;;;19.69;60.78;102554.38;4908734;28;120334;-78
2022/08/10 05:19:47;;;;;;;11.20;7.50;;;;;;;19.78;60.95;102562.69;4913519;28;119865;-78
2022/08/10 05:22:16;;;;;;;12.63;7.93;;;;;;;19.83;61.53;102557.25;4910490;28;120027;-79
2022/08/10 05:24:41;;;;;;;10.73;7.63;;;;;;;19.92;61.68;102557.22;4907303;28;120163;-79
2022/08/10 05:27:08;;;;;;;8.98;7.18;;;;;;;20.04;61.87;102557.47;4895048;28;121853;-79
2022/08/10 05:29:33;;;;;;;9.55;6.70;;;;;;;20.15;61.64;102557.75;4924709;28;120003;-79
2022/08/10 05:31:59;;;;;;;11.17;6.83;;;;;;;20.24;61.77;102558.44;4908672;28;120015;-79
2022/08/10 05:34:27;;;;;;;12.53;7.60;;;;;;;20.34;62.00;102561.19;4919683;28;120292;-79
2022/08/10 05:36:54;;;;;;;10.53;7.40;;;;;;;20.43;61.99;102566.75;4921714;28;122922;-79
2022/08/10 05:39:22;;;;;;;11.07;7.63;;;;;;;20.50;61.60;102572.72;4891834;28;119839;-78
2022/08/10 05:41:51;;;;;;;13.55;9.05;;;;;;;20.59;62.08;102577.50;4913276;28;119978;-79
2022/08/10 05:44:19;;;;;;;12.57;9.07;;;;;;;20.65;62.08;102578.38;4920853;28;120510;-79
2022/08/10 05:46:45;;;;;;;13.10;8.60;;;;;;;20.78;61.89;102576.09;4922160;28;120699;-78
2022/08/10 05:49:10;;;;;;;10.80;7.90;;;;;;;20.91;62.08;102580.66;4908790;28;120048;-79
2022/08/10 05:51:36;;;;;;;11.00;8.13;;;;;;;21.02;62.09;102570.47;4908241;28;120047;-79
2022/08/10 05:54:02;;;;;;;11.32;8.40;;;;;;;21.10;61.69;102568.09;4909179;28;120133;-79
2022/08/10 05:56:29;;;;;;;14.18;8.27;;;;;;;21.20;62.00;102572.34;4906131;28;121323;-79
2022/08/10 05:58:55;;;;;;;15.00;8.07;;;;;;;21.31;61.71;102569.78;4921746;28;120254;-78
2022/08/10 06:01:24;;;;;;;11.18;8.40;;;;;;;21.44;61.33;102577.88;4907169;28;122428;-79
2022/08/10 06:03:57;;;;;;;11.17;7.70;;;;;;;21.52;60.98;102569.88;4928148;28;123186;-79
2022/08/10 06:06:25;;;;;;;11.25;8.02;;;;;;;21.63;61.49;102570.06;4908105;28;120565;-79
2022/08/10 06:08:52;;;;;;;13.07;8.00;;;;;;;21.72;61.31;102572.75;4922914;28;120108;-79
2022/08/10 06:11:55;;;;;;;12.60;7.90;;;;;;;21.79;61.06;102566.78;4901900;28;120190;-79
2022/08/10 06:17:06;;;;;;;10.70;7.38;;;;;;;21.96;61.32;102569.81;4908013;28;120659;-79
2022/08/10 06:19:33;;;;;;;11.37;8.60;;;;;;;22.06;60.42;102574.09;4905521;28;120353;-79
2022/08/10 06:22:00;;;;;;;15.23;8.87;;;;;;;22.11;60.41;102575.44;4910310;28;119936;-78
2022/08/10 06:24:32;;;;;;;15.00;8.65;;;;;;;22.13;60.55;102575.72;4903292;28;120305;-78
2022/08/10 06:26:58;;;;;;;13.60;8.60;;;;;;;22.19;60.80;102579.34;4908894;28;119993;-79
2022/08/10 06:29:27;;;;;;;15.73;9.20;;;;;;;22.26;60.68;102576.16;4894113;28;122743;-79
2022/08/10 06:31:54;;;;;;;13.57;8.30;;;;;;;22.34;61.34;102566.09;4907836;28;119867;-79
2022/08/10 06:34:24;;;;;;;13.52;8.48;;;;;;;22.42;60.82;102574.84;4910403;28;120248;-79
2022/08/10 06:36:51;;;;;;;13.68;8.82;;;;;;;22.46;60.47;102567.00;4898585;28;120756;-79
2022/08/10 06:39:17;;;;;;;12.70;8.27;;;;;;;22.52;60.89;102565.84;4905085;28;120295;-79
2022/08/10 06:41:48;;;;;;;11.82;7.97;;;;;;;22.58;60.25;102571.50;4906433;28;122786;-79
2022/08/10 06:44:56;;;;;;;12.63;7.43;;;;;;;22.62;60.12;102567.22;4932909;28;120383;-79
2022/08/10 06:47:27;;;;;;;9.80;7.43;;;;;;;22.66;60.21;102570.56;4930146;28;120279;-79
2022/08/10 06:49:58;;;;;;;10.30;6.83;;;;;;;22.71;60.36;102568.34;4932339;28;121333;-79
2022/08/10 06:52:25;;;;;;;10.75;7.07;;;;;;;22.71;60.65;102571.13;4945244;28;120377;-79
2022/08/10 06:54:54;;;;;;;9.57;6.65;;;;;;;22.77;60.45;102575.56;4927767;28;121414;-79
2022/08/10 06:57:25;;;;;;;8.68;6.50;;;;;;;22.83;60.73;102578.44;4943721;28;120358;-79
2022/08/10 06:59:52;;;;;;;10.32;6.57;;;;;;;22.87;60.46;102565.00;4927845;28;120180;-79
2022/08/10 07:02:31;;;;;;;11.17;6.80;;;;;;;22.92;59.90;102570.66;4939581;28;120170;-79
2022/08/10 07:05:02;;;;;;;11.73;7.00;;;;;;;22.98;60.01;102581.94;4945040;28;120477;-79
2022/08/10 07:07:31;;;;;;;11.45;6.80;;;;;;;23.03;59.97;102586.81;4945829;28;120329;-79
2022/08/10 07:09:59;;;;;;;9.43;6.30;;;;;;;23.10;59.49;102580.78;4944529;28;120244;-79
2022/08/10 07:12:26;;;;;;;8.23;6.20;;;;;;;23.16;59.18;102581.59;4935708;28;123808;-79
2022/08/10 07:14:52;;;;;;;9.40;5.93;;;;;;;23.20;58.50;102584.19;4940104;28;120623;-79
2022/08/10 07:17:22;;;;;;;8.88;5.70;;;;;;;23.31;58.79;102589.91;4907764;28;120795;-78
2022/08/10 07:19:51;;;;;;;9.85;5.35;;;;;;;23.43;58.75;102582.38;4907716;28;120329;-79
2022/08/10 07:22:19;;;;;;;8.43;5.07;;;;;;;23.55;58.27;102578.41;4905494;28;121112;-79
2022/08/10 07:24:46;;;;;;;7.70;5.45;;;;;;;23.64;58.33;102578.25;4921724;28;123776;-79
2022/08/10 07:27:12;;;;;;;8.33;5.33;;;;;;;23.66;57.41;102574.94;4921210;28;120982;-79
2022/08/10 07:29:43;;;;;;;8.83;5.30;;;;;;;23.80;56.62;102582.47;4909903;28;123079;-78
2022/08/10 07:32:11;;;;;;;9.45;5.07;;;;;;;23.82;56.13;102577.13;4930207;28;121232;-79
2022/08/10 07:34:38;;;;;;;6.47;4.50;;;;;;;23.87;56.84;102587.59;4927243;28;120696;-78
2022/08/10 07:37:06;;;;;;;7.63;4.50;;;;;;;23.93;56.83;102582.06;4908943;28;121005;-79
2022/08/10 07:39:38;;;;;;;6.60;4.22;;;;;;;23.97;56.17;102577.75;4911026;28;120852;-79
2022/08/10 07:42:08;;;;;;;6.93;4.28;;;;;;;23.99;57.19;102580.81;4910687;28;121603;-78
2022/08/10 07:44:37;;;;;;;6.70;4.43;;;;;;;24.06;56.86;102591.56;4906917;28;122833;-79
2022/08/10 07:47:04;;;;;;;6.20;4.07;;;;;;;24.10;56.62;102588.53;4910408;28;120925;-79
2022/08/10 07:49:38;;;;;;;8.10;4.40;;;;;;;24.15;56.29;102582.97;4906506;28;122760;-79
2022/08/10 07:52:09;;;;;;;6.28;4.00;;;;;;;24.27;56.58;102583.03;4909649;28;122860;-79
2022/08/10 07:54:44;;;;;;;5.22;3.83;;;;;;;24.42;55.98;102592.84;4918393;28;122238;-79
2022/08/10 07:57:17;;;;;;;5.60;3.80;;;;;;;24.56;54.57;102587.53;4909998;28;121765;-79
2022/08/10 07:59:52;;;;;;;7.10;3.80;;;;;;;24.80;54.66;102591.47;4907305;28;122029;-78
2022/08/10 08:02:40;;;;;;;5.35;3.58;;;;;;;25.14;52.62;102585.22;4910716;28;121963;-79
2022/08/10 08:05:09;;;;;;;5.80;3.50;;;;;;;25.49;52.32;102577.06;4924345;28;123530;-79
2022/08/10 08:07:37;;;;;;;5.32;3.15;;;;;;;25.87;51.17;102583.25;4907244;28;122275;-79
2022/08/10 08:10:07;;;;;;;7.70;3.27;;;;;;;26.18;50.15;102582.16;4923780;28;122819;-79
2022/08/10 08:12:34;;;;;;;4.03;2.63;;;;;;;26.43;49.46;102580.31;4905405;28;122290;-79
2022/08/10 08:15:13;;;;;;;4.15;2.50;;;;;;;26.63;48.89;102579.22;4903773;28;124082;-79
2022/08/10 08:17:40;;;;;;;4.47;2.47;;;;;;;26.80;48.17;102588.34;4911986;28;122358;-79
2022/08/10 08:20:07;;;;;;;4.00;2.65;;;;;;;26.86;46.49;102589.09;4908167;28;122240;-79
2022/08/10 08:22:35;;;;;;;3.23;2.17;;;;;;;26.90;46.79;102583.94;4908944;28;122117;-79
2022/08/10 08:25:21;;;;;;;4.38;2.45;;;;;;;26.93;46.42;102580.84;4912146;28;122896;-79
2022/08/10 08:27:51;;;;;;;3.80;2.20;;;;;;;26.83;46.71;102581.69;4909427;28;121947;-79
2022/08/10 08:30:21;;;;;;;3.55;2.33;;;;;;;26.65;47.09;102580.22;4907677;28;122512;-79
2022/08/10 08:32:47;;;;;;;4.05;1.90;;;;;;;26.66;46.73;102573.31;4908603;28;122406;-79
2022/08/10 08:35:32;;;;;;;3.83;1.83;;;;;;;26.65;46.80;102566.16;4908240;28;122850;-79
2022/08/10 08:37:59;;;;;;;4.13;1.97;;;;;;;26.63;45.78;102568.72;4908948;28;122578;-79
2022/08/10 08:40:35;;;;;;;3.40;1.90;;;;;;;26.67;47.15;102560.00;4888371;28;122629;-79
2022/08/10 08:43:23;;;;;;;1.80;1.70;;;;;;;26.83;47.17;102576.81;4906625;28;125479;-79
2022/08/10 08:46:15;;;;;;;4.28;1.98;;;;;;;26.97;46.20;102574.16;4900474;28;122322;-79
2022/08/10 08:48:52;;;;;;;3.28;1.75;;;;;;;27.11;46.00;102570.28;4921155;28;122889;-79
2022/08/10 08:51:36;;;;;;;2.35;1.85;;;;;;;27.28;45.80;102568.13;4908279;28;122573;-79
2022/08/10 08:54:21;;;;;;;2.63;1.70;;;;;;;27.43;44.92;102570.53;4904903;28;122770;-79
2022/08/10 08:56:59;;;;;;;3.20;1.90;;;;;;;27.55;44.08;102568.41;4903836;28;122454;-80
2022/08/10 08:59:36;;;;;;;2.85;1.80;;;;;;;27.67;44.89;102567.03;4904856;28;123127;-78
2022/08/10 09:02:16;;;;;;;2.67;1.73;;;;;;;27.73;43.43;102553.69;4907416;28;122393;-79
2022/08/10 09:04:51;;;;;;;3.50;1.80;;;;;;;27.81;42.18;102555.38;4888709;28;122715;-78
2022/08/10 09:07:35;;;;;;;2.47;1.70;;;;;;;27.74;43.35;102555.97;4899159;28;123350;-79
2022/08/10 09:10:25;;;;;;;2.23;1.50;;;;;;;27.80;42.96;102544.63;4904544;28;123072;-79
2022/08/10 09:13:40;;;;;;;2.85;1.52;;;;;;;27.92;43.38;102548.88;4907657;28;124236;-79
2022/08/10 09:16:14;;;;;;;2.50;1.80;;;;;;;27.97;43.29;102550.09;4884021;28;124435;-79
2022/08/10 09:19:09;;;;;;;3.50;1.80;;;;;;;28.01;43.05;102539.28;4913779;28;123247;-79
2022/08/10 09:21:46;;;;;;;3.92;1.70;;;;;;;28.04;43.74;102536.16;4893956;28;123609;-79
2022/08/10 09:24:18;;;;;;;3.00;1.63;;;;;;;28.14;43.16;102539.38;4934665;28;124557;-79
2022/08/10 09:26:51;;;;;;;3.58;1.70;;;;;;;28.19;43.41;102535.00;4902407;28;122986;-79
2022/08/10 09:29:26;;;;;;;3.40;1.80;;;;;;;28.33;42.41;102542.28;4905617;28;123150;-78
2022/08/10 09:32:06;;;;;;;2.20;1.63;;;;;;;28.36;42.51;102535.56;4886853;28;122438;-79
2022/08/10 09:34:36;;;;;;;3.78;1.80;;;;;;;28.27;41.75;102527.47;4902337;28;122591;-79
2022/08/10 09:37:34;;;;;;;3.83;1.70;;;;;;;28.16;42.35;102536.06;4886531;28;122974;-79
2022/08/10 09:40:14;;;;;;;3.00;1.75;;;;;;;28.05;42.60;102522.81;4904510;28;122339;-79
2022/08/10 09:42:43;;;;;;;3.17;1.77;;;;;;;28.09;43.01;102528.94;4900613;28;122922;-79
2022/08/10 09:45:19;;;;;;;2.30;1.60;;;;;;;28.03;42.10;102517.72;4886033;28;122482;-78
2022/08/10 09:48:31;;;;;;;2.45;1.75;;;;;;;28.05;42.58;102522.81;4900981;28;122310;-77
2022/08/10 09:51:18;;;;;;;1.85;1.67;;;;;;;27.96;42.86;102509.84;4902903;28;123300;-77
2022/08/10 09:54:29;;;;;;;2.13;1.60;;;;;;;27.97;42.83;102514.19;4917197;28;122655;-79
2022/08/10 09:57:22;;;;;;;3.38;1.75;;;;;;;28.03;42.98;102511.31;4886666;28;123528;-79
2022/08/10 10:00:00;;;;;;;2.50;1.70;;;;;;;28.04;42.07;102513.59;4885984;28;124410;-79
2022/08/10 10:03:13;;;;;;;2.63;1.65;;;;;;;28.05;41.82;102512.31;4898224;28;122409;-79
2022/08/10 10:05:39;;;;;;;4.03;1.75;;;;;;;28.07;40.90;102520.22;4911090;28;123021;-80
2022/08/10 10:08:08;;;;;;;3.03;1.70;;;;;;;28.05;41.76;102508.72;4911539;28;122843;-79
2022/08/10 10:10:54;;;;;;;4.45;1.85;;;;;;;28.01;41.53;102506.19;4912603;28;124675;-79
2022/08/10 10:13:48;;;;;;;7.05;2.00;;;;;;;28.04;42.20;102504.38;4884575;28;122465;-79
2022/08/10 10:16:26;;;;;;;2.90;1.90;;;;;;;28.00;42.29;102510.31;4900600;28;124639;-80
2022/08/10 10:19:14;;;;;;;1.77;1.50;;;;;;;28.02;42.64;102504.16;4914009;28;123183;-80
2022/08/10 10:21:48;;;;;;;3.40;1.60;;;;;;;28.05;42.08;102508.72;4914075;28;122423;-78
2022/08/10 10:24:33;;;;;;;3.10;1.50;;;;;;;28.09;41.56;102495.84;4900342;28;122822;-80
2022/08/10 10:27:10;;;;;;;3.20;1.67;;;;;;;28.12;42.10;102491.94;4883443;28;123129;-79
2022/08/10 10:29:56;;;;;;;2.83;1.70;;;;;;;28.08;41.63;102502.00;4866868;28;125534;-80
2022/08/10 10:32:31;;;;;;;4.10;1.80;;;;;;;28.03;42.38;102502.84;4898395;28;124379;-79
2022/08/10 10:35:02;;;;;;;2.22;1.80;;;;;;;27.98;42.03;102498.03;4898907;28;122808;-80
2022/08/10 10:37:30;;;;;;;1.80;1.60;;;;;;;27.97;41.78;102483.19;4894359;28;123498;-80
2022/08/10 10:40:00;;;;;;;3.77;1.70;;;;;;;27.99;41.88;102496.75;4900026;28;123580;-80
2022/08/10 10:42:36;;;;;;;4.97;1.73;;;;;;;27.99;41.98;102491.09;4882489;28;123116;-79
2022/08/10 10:45:30;;;;;;;2.85;1.60;;;;;;;27.98;42.33;102486.75;4910400;28;122816;-79
2022/08/10 10:48:01;;;;;;;2.53;1.52;;;;;;;27.99;41.12;102491.88;4898698;28;122913;-80
2022/08/10 10:50:40;;;;;;;2.78;1.50;;;;;;;28.02;39.79;102481.56;4892576;28;122833;-80
2022/08/10 10:53:11;;;;;;;2.20;1.60;;;;;;;28.05;39.46;102483.34;4882831;28;122646;-80
2022/08/10 10:55:48;;;;;;;3.58;1.70;;;;;;;28.03;40.82;102475.41;4899642;28;123101;-80
2022/08/10 10:58:42;;;;;;;1.98;1.58;;;;;;;28.13;41.72;102472.97;4913810;28;124075;-80
2022/08/10 11:01:31;;;;;;;2.50;1.50;;;;;;;28.21;40.15;102473.91;4915792;28;124500;-79
2022/08/10 11:04:08;;;;;;;3.30;1.60;;;;;;;28.26;41.25;102475.91;4904541;28;122966;-80
2022/08/10 11:06:59;;;;;;;1.75;1.40;;;;;;;28.32;40.33;102465.31;4896531;28;122887;-79
2022/08/10 11:09:45;;;;;;;1.90;1.50;;;;;;;28.34;39.34;102461.94;4900262;28;122548;-80
2022/08/10 11:12:35;;;;;;;2.50;1.42;;;;;;;28.35;38.30;102472.72;4901069;28;122522;-80
2022/08/10 11:15:08;;;;;;;2.83;1.60;;;;;;;28.32;38.96;102468.13;4915448;28;124366;-80
2022/08/10 11:17:58;;;;;;;3.28;1.33;;;;;;;28.31;38.66;102468.66;4902229;28;122574;-80
2022/08/10 11:20:42;;;;;;;3.40;1.53;;;;;;;28.26;38.75;102463.88;4916436;28;122541;-80
2022/08/10 11:23:11;;;;;;;1.77;1.30;;;;;;;28.30;40.06;102458.69;4898840;28;123084;-80
2022/08/10 11:25:56;;;;;;;4.30;1.50;;;;;;;28.32;39.51;102459.66;4898306;28;125361;-79
2022/08/10 11:28:30;;;;;;;2.95;1.55;;;;;;;28.36;40.09;102450.88;4900367;28;123365;-79
2022/08/10 11:31:31;;;;;;;3.90;1.50;;;;;;;28.40;41.00;102457.03;4899785;28;122629;-80
2022/08/10 11:34:21;;;;;;;1.98;1.50;;;;;;;28.38;39.81;102442.66;4897069;28;124217;-79
2022/08/10 11:37:07;;;;;;;2.60;1.70;;;;;;;28.36;38.83;102439.59;4915113;28;122252;-80
2022/08/10 11:39:47;;;;;;;3.63;1.33;;;;;;;28.37;40.32;102446.78;4899704;28;122407;-79
2022/08/10 11:42:37;;;;;;;3.50;1.33;;;;;;;28.38;40.41;102454.69;4898917;28;123940;-80
2022/08/10 11:45:10;;;;;;;2.40;1.40;;;;;;;28.37;39.95;102452.41;4899607;28;122977;-80
2022/08/10 11:47:49;;;;;;;1.80;1.20;;;;;;;28.31;38.98;102448.91;4901205;28;122422;-80
2022/08/10 11:50:22;;;;;;;2.30;1.30;;;;;;;28.28;39.44;102444.34;4901228;28;122499;-80